Brandon, Wisconsin
Current Conditions -  °F | °C
As of 9:53 AM on Saturday 25 Oct 2014 (Local Time) from KFLD Reporting Station
Clear Clear  
Wind Chill: 58°   Ceiling: Unl
Heat Index: 58°   Visibility: 10mi
Dew Point: 42°   Wind: 15mph
Humidity: 56%   Direction: 280°W
Pressure: 29.91"   Gusts: 23mph
Location:  43.74°N, 88.78°W
Report Text: KFLD 251453Z AUTO 28013G20KT 10SM CLR 14/06 A2991 RMK AO2 SLP128 T01440056 51013
Loading
Personal Weather Stations






























Interactive Weather Map
Tropical Storm Tracking
New forecast layout! Learn more

10-Day Weather Forecast

Advertisements
Track Severe Weather on mobile